• Join FlightAware (Why Join?)
  • Login
  • US Flag 
11:43PM EST


 

Airport Tracker/Info


-or-


 

Live Flight TrackerFlight Track Log ✈ QJE1948 ✈ 28-May-2013 ✈ YBAS / ASP - YBCS / CNS

Flight Track Log - Related Links

Times and Time Zones

All times are in EDT time to prevent confusion due to time zone crossing. See the QJE1948 flight status page for this flight to view local times or setup timezone preferences in your user account.

Time Position Orientation Groundspeed Altitude Reporting Facility
EDT Latitude Longitude Course Direction KTS MPH feet Rate Location/Type
03:59AM -23.7927 133.8782 60° Northeast 35,000  Level Aus ATC (Calculated)
04:00AM -23.7280 134.0007 60° Northeast 35,000  Level Aus ATC (Calculated)
04:00AM -23.7280 134.0007 60° Northeast 35,000  Level Aus ATC (Calculated)
04:01AM -23.6632 134.1231 60° Northeast 35,000  Level Aus ATC (Calculated)
04:02AM -23.6151 134.2138 60° Northeast  Level FlightAware Approximate
04:03AM -23.5389 134.3570 60° Northeast  Level FlightAware Approximate
04:03AM -23.5334 134.3674 60° Northeast 35,000  Level Aus ATC (Calculated)
04:03AM -23.5009 134.4285 60° Northeast 35,000  Level Aus ATC (Calculated)
04:04AM -23.4683 134.4895 60° Northeast 35,000  Level Aus ATC (Calculated)
04:06AM -23.3604 134.6912 60° Northeast  Level FlightAware Approximate
04:06AM -23.3705 134.6723 59° Northeast 35,000  Level Aus ATC (Calculated)
04:07AM -23.3022 134.7995 60° Northeast  Level FlightAware Approximate
04:07AM -23.3052 134.7940 59° Northeast 35,000  Level Aus ATC (Calculated)
04:07AM -23.2398 134.9156 59° Northeast 35,000  Level Aus ATC (Calculated)
04:08AM -23.2398 134.9156 59° Northeast 35,000  Level Aus ATC (Calculated)
04:09AM -23.1622 135.0595 60° Northeast  Level FlightAware Approximate
04:10AM -23.1210 135.1356 60° Northeast  Level FlightAware Approximate
04:10AM -23.1087 135.1584 59° Northeast 35,000  Level Aus ATC (Calculated)
04:12AM -22.9896 135.3780 60° Northeast  Level FlightAware Approximate
04:12AM -22.9773 135.4008 59° Northeast 35,000  Level Aus ATC (Calculated)
04:14AM -22.8578 135.6200 59° Northeast  Level FlightAware Approximate
04:15AM -22.7888 135.7463 59° Northeast  Level FlightAware Approximate
04:16AM -22.7196 135.8724 59° Northeast  Level FlightAware Approximate
04:16AM -22.7184 135.8747 59° Northeast 35,000  Level Aus ATC (Calculated)
04:17AM -22.7386 135.8378 59° Northeast  Level FlightAware Approximate
04:18AM -22.6074 136.0762 59° Northeast  Level FlightAware Approximate
04:19AM -22.5380 136.2020 59° Northeast  Level FlightAware Approximate
04:19AM -22.5224 136.2303 59° Northeast 35,000  Level Aus ATC (Calculated)
04:21AM -22.3857 136.4768 59° Northeast  Level FlightAware Approximate
04:22AM -22.3166 136.6009 59° Northeast  Level FlightAware Approximate
04:22AM -22.2974 136.6354 59° Northeast 35,000  Level Aus ATC (Calculated)
04:23AM -22.2093 136.7932 59° Northeast 35,000  Level Aus ATC (Calculated)
04:24AM -22.1409 136.9176 59° Northeast  Level Estimated
04:24AM -22.0768 137.0296 58° Northeast 35,000  Level Aus ATC (Calculated)
04:25AM -22.0714 137.0412 59° Northeast  Level FlightAware Approximate
04:26AM -21.9981 137.1696 59° Northeast  Level FlightAware Approximate
04:27AM -21.9285 137.2930 59° Northeast  Level FlightAware Approximate
04:28AM -21.8589 137.4163 59° Northeast  Level FlightAware Approximate
04:29AM -21.7891 137.5395 59° Northeast  Level FlightAware Approximate
04:30AM -21.7192 137.6626 59° Northeast  Level FlightAware Approximate
04:31AM -21.6493 137.7855 59° Northeast  Level FlightAware Approximate
04:31AM -21.5883 137.8925 58° Northeast 35,000  Level Aus ATC (Calculated)
04:31AM -21.5883 137.8925 58° Northeast 35,000  Level Aus ATC (Calculated)
04:33AM -21.3405 137.8925 North  Level FlightAware Approximate
04:34AM -21.4744 137.8925 180° South  Level FlightAware Approximate
04:35AM -21.5185 138.0145 58° Northeast  Level FlightAware Approximate
04:36AM -21.4482 138.1370 58° Northeast  Level FlightAware Approximate
04:37AM -21.3779 138.2595 58° Northeast  Level FlightAware Approximate
04:38AM -21.3074 138.3818 58° Northeast  Level FlightAware Approximate
04:39AM -21.2369 138.5040 58° Northeast  Level FlightAware Approximate
04:40AM -20.9741 138.9807 57° Northeast  Level Estimated
04:41AM -20.9016 139.1013 57° Northeast  Level FlightAware Approximate
04:42AM -20.8290 139.2218 57° Northeast  Level FlightAware Approximate
04:43AM -20.7563 139.3421 57° Northeast  Level FlightAware Approximate
04:43AM -20.6646 139.4858 57° Northeast 35,000  Level Aus ATC (Calculated)
04:45AM -20.5221 139.7225 57° Northeast  Level FlightAware Approximate
04:45AM -20.4580 139.8285 57° Northeast 35,000  Level Aus ATC (Calculated)
04:47AM -20.3490 140.0086 57° Northeast  Level FlightAware Approximate
04:48AM -20.2790 140.1304 57° Northeast  Level Estimated
04:49AM -20.2059 140.2500 57° Northeast  Level FlightAware Approximate
04:50AM -20.1328 140.3696 57° Northeast  Level FlightAware Approximate
04:50AM -20.1123 140.3977 57° Northeast 35,000  Level Aus ATC (Calculated)
04:51AM -20.0392 140.5172 57° Northeast  Level FlightAware Approximate
04:51AM -20.0015 140.5786 57° Northeast 35,000  Level Aus ATC (Calculated)
04:53AM -19.8902 140.7597 57° Northeast  Level FlightAware Approximate
04:53AM -19.8627 140.8044 57° Northeast 35,000  Level Aus ATC (Calculated)
04:54AM -19.7900 140.9223 57° Northeast  Level FlightAware Approximate
04:55AM -19.7172 141.0401 57° Northeast  Level FlightAware Approximate
04:55AM -19.6400 141.1649 56° Northeast 35,000  Level Aus ATC (Calculated)
04:56AM -19.6444 141.1578 57° Northeast  Level FlightAware Approximate
04:57AM -19.5647 141.2864 57° Northeast  Level FlightAware Approximate
04:58AM -19.4917 141.4038 57° Northeast  Level FlightAware Approximate
04:59AM -19.4186 141.5212 57° Northeast  Level FlightAware Approximate
04:59AM -19.3607 141.6141 56° Northeast 35,000  Level Aus ATC (Calculated)
04:59AM -19.3607 141.6141 56° Northeast 35,000  Level Aus ATC (Calculated)
05:01AM -19.2398 141.8073 57° Northeast  Level FlightAware Approximate
05:02AM -19.1665 141.9243 56° Northeast  Level FlightAware Approximate
05:02AM -19.2130 141.8450 56° Northeast 510 587 35,100  Level Aus ATC (RADAR)
05:03AM -19.1216 141.9902 56° Northeast 509 586 35,100  Level Aus ATC (RADAR)
05:03AM -19.0913 142.0437 59° Northeast 509 586 35,100  Level Aus ATC (RADAR)
05:04AM -19.0463 142.1164 57° Northeast 509 586 35,100  Level Aus ATC (RADAR)
05:05AM -18.9876 142.2090 56° Northeast 508 585 35,100  Level Aus ATC (RADAR)
05:05AM -18.9357 142.2920 57° Northeast 509 586 35,100  Level Aus ATC (RADAR)
05:06AM -18.8750 142.3836 55° Northeast 509 586 35,100  Level Aus ATC (RADAR)
05:06AM -18.8424 142.4352 56° Northeast 508 585 35,100  Level Aus ATC (RADAR)
05:07AM -18.8036 142.4975 57° Northeast 508 585 35,100  Level Aus ATC (RADAR)
05:08AM -18.6984 142.6618 56° Northeast 510 587 35,100  Level Aus ATC (RADAR)
05:09AM -18.6663 142.7137 57° Northeast 510 587 35,100  Level Aus ATC (RADAR)
05:09AM -18.6135 142.7960 56° Northeast 509 586 35,100  Level Aus ATC (RADAR)
05:10AM -18.5546 142.8886 56° Northeast 507 583 35,100  Level Aus ATC (RADAR)
05:11AM -18.5089 142.9607 56° Northeast 507 583 35,100  Level Aus ATC (RADAR)
05:11AM -18.4501 143.0533 56° Northeast 508 585 35,100  Level Aus ATC (RADAR)
05:12AM -18.4174 143.1044 56° Northeast 507 583 35,100  Level Aus ATC (RADAR)
05:13AM -18.3121 143.2688 56° Northeast 508 585 35,100  Level Aus ATC (RADAR)
05:14AM -18.2790 143.3202 56° Northeast 508 585 35,100  Level Aus ATC (RADAR)
05:14AM -18.2331 143.3920 56° Northeast 508 585 35,100  Level Aus ATC (RADAR)
05:15AM -18.1737 143.4842 56° Northeast 508 585 35,100  Level Aus ATC (RADAR)
05:15AM -18.1280 143.5560 56° Northeast 507 583 35,100  Level Aus ATC (RADAR)
05:16AM -18.0819 143.6281 56° Northeast 508 585 35,100  Level Aus ATC (RADAR)
05:17AM -18.0349 143.6998 55° Northeast 510 587 35,100  Level Aus ATC (RADAR)
05:17AM -17.9886 143.7714 56° Northeast 509 586 35,100  Level Aus ATC (RADAR)
05:18AM -17.9099 143.8944 56° Northeast 507 583 35,100  Level Aus ATC (RADAR)
05:19AM -17.8738 143.9431 52° Northeast 507 583 35,100  Level Aus ATC (RADAR)
05:19AM -17.8234 144.0118 52° Northeast 508 585 35,100  Level Aus ATC (RADAR)
05:20AM -17.7588 144.1002 53° Northeast 508 585 35,100  Level Aus ATC (RADAR)
05:21AM -17.7085 144.1690 52° Northeast 509 586 35,100  Level Aus ATC (RADAR)
05:21AM -17.6581 144.2377 52° Northeast 509 586 35,100  Level Aus ATC (RADAR)
05:22AM -17.6084 144.3063 53° Northeast 507 583 35,100 -600 Level Aus ATC (RADAR)
05:22AM -17.5581 144.3744 52° Northeast 507 583 34,400 -2,400 Descending Aus ATC (RADAR)
05:23AM -17.4788 144.4817 52° Northeast 504 580 31,500 -3,300 Descending Aus ATC (RADAR)
05:24AM -17.4357 144.5406 52° Northeast 505 581 29,800 -3,000 Descending Aus ATC (RADAR)
05:24AM -17.3847 144.6102 52° Northeast 512 589 28,300 -2,640 Descending Aus ATC (RADAR)
05:25AM -17.3139 144.7065 52° Northeast 494 568 26,100 -2,580 Descending Aus ATC (RADAR)
05:26AM -17.2665 144.7719 53° Northeast 480 552 24,700 -2,580 Descending Aus ATC (RADAR)
05:26AM -17.2067 144.8521 52° Northeast 459 528 22,700 -2,580 Descending Aus ATC (RADAR)
05:27AM -17.1750 144.8953 52° Northeast 448 516 21,700 -2,340 Descending Aus ATC (RADAR)
05:27AM -17.1315 144.9544 52° Northeast 435 501 20,400 -2,400 Descending Aus ATC (RADAR)
05:28AM -17.0604 145.0504 52° Northeast 408 470 17,900 -2,340 Descending Aus ATC (RADAR)
05:29AM -17.0317 145.0892 52° Northeast 403 464 17,200 -2,340 Descending Aus ATC (RADAR)
05:29AM -16.9917 145.1426 52° Northeast 395 455 15,600 -2,580 Descending Aus ATC (RADAR)
05:30AM -16.9426 145.2097 53° Northeast 382 440 13,800 -2,400 Descending Aus ATC (RADAR)
05:31AM -16.9048 145.2608 52° Northeast 378 435 12,400 -2,280 Descending Aus ATC (RADAR)
05:31AM -16.8690 145.3081 52° Northeast 352 405 11,200 -1,500 Descending Aus ATC (RADAR)
05:32AM -16.8414 145.3460 53° Northeast 328 377 10,800 -960 Descending Aus ATC (RADAR)
05:32AM -16.8116 145.3856 52° Northeast 296 341 10,200 -1,440 Descending Aus ATC (RADAR)
05:34AM -16.7525 145.4646 52° Northeast 268 308 8,200 -1,620 Descending Aus ATC (RADAR)
05:34AM -16.7300 145.4950 52° Northeast 261 300 7,400 -1,440 Descending Aus ATC (RADAR)
05:35AM -16.7083 145.5239 52° Northeast 250 288 6,800 -840 Descending Aus ATC (RADAR)
05:35AM -16.6698 145.5617 43° Northeast 253 291 6,400 -780 Descending Aus ATC (RADAR)
05:36AM -16.6443 145.5944 51° Northeast 247 284 5,800 -1,140 Descending Aus ATC (RADAR)
05:37AM -16.6483 145.6386 95° East 219 252 4,900 -1,380 Descending Aus ATC (RADAR)
05:37AM -16.6689 145.6550 143° Southeast 223 257 4,200 -1,620 Descending Aus ATC (RADAR)
05:38AM -16.7027 145.6699 157° South 225 259 3,300 -1,140 Descending Aus ATC (RADAR)
05:39AM -16.7552 145.6935 157° South 200 230 2,400 -960 Descending Aus ATC (RADAR)
05:39AM -16.7666 145.6988 156° South 189 217 2,100 -960 Descending Aus ATC (RADAR)
05:40AM -16.7891 145.7087 157° South 155 178 1,600 -720 Descending Aus ATC (RADAR)
05:40AM -16.8121 145.7194 156° South 123 142 1,200 -660 Descending Aus ATC (RADAR)
05:41AM -16.8295 145.7272 157° South 118 136 800 -600 Descending Aus ATC (RADAR)
05:41AM -16.8473 145.7353 156° South 120 138 500 -660 Descending Aus ATC (RADAR)
05:42AM -16.8630 145.7428 155° Southeast 122 140 100 -840 Descending Aus ATC (RADAR)